Wetterdaten: Woche 15.08.11 - 21.08.11 (KW33)
Datum Zeit Temperatur Luftfeuchte Luftdruck Niederschlag Windrichtung Sonnenschein Solar Wind
15.08.2011 00:00 17,3 C 89 % 1010,1 hPa 1,6 l/m W-SW 0,00 h 0 W/m 2,5 km/h (1 Bft)
15.08.2011 01:00 16,5 C 96 % 1009,9 hPa 1,2 l/m N 0,00 h 0 W/m 0,7 km/h (0 Bft)
15.08.2011 02:00 16,4 C 97 % 1009,4 hPa 0,0 l/m S-SW 0,00 h 0 W/m 7,3 km/h (2 Bft)
15.08.2011 03:00 16,2 C 97 % 1009,6 hPa 5,4 l/m W-SW 0,00 h 0 W/m 10,6 km/h (2 Bft)
15.08.2011 04:00 16,1 C 98 % 1009,3 hPa 5,0 l/m SW 0,00 h 0 W/m 6,7 km/h (2 Bft)
15.08.2011 05:00 15,9 C 98 % 1009,2 hPa 2,6 l/m SW 0,00 h 0 W/m 9,0 km/h (2 Bft)
15.08.2011 06:00 16,0 C 98 % 1009,7 hPa 0,2 l/m SW 0,00 h 8 W/m 10,8 km/h (2 Bft)
15.08.2011 07:00 16,1 C 98 % 1010,2 hPa 0,0 l/m SW 0,00 h 36 W/m 10,2 km/h (2 Bft)
15.08.2011 08:00 16,6 C 98 % 1010,7 hPa 0,0 l/m W-SW 0,00 h 94 W/m 10,5 km/h (2 Bft)
15.08.2011 09:00 17,2 C 96 % 1011,2 hPa 0,0 l/m W-SW 0,00 h 101 W/m 9,3 km/h (2 Bft)
15.08.2011 10:00 18,1 C 94 % 1011,5 hPa 0,2 l/m W-SW 0,00 h 165 W/m 9,9 km/h (2 Bft)
15.08.2011 11:00 18,4 C 95 % 1011,9 hPa 0,2 l/m W-SW 0,08 h 202 W/m 8,4 km/h (2 Bft)
15.08.2011 12:00 20,1 C 89 % 1011,8 hPa 0,0 l/m W 0,42 h 449 W/m 13,3 km/h (3 Bft)
15.08.2011 13:00 20,7 C 80 % 1012,1 hPa 0,0 l/m W-NW 0,25 h 407 W/m 10,5 km/h (2 Bft)
15.08.2011 14:00 20,8 C 78 % 1012,6 hPa 0,0 l/m N-NW 0,25 h 378 W/m 12,7 km/h (3 Bft)
15.08.2011 15:00 21,1 C 76 % 1012,8 hPa 0,0 l/m N-NO 0,42 h 284 W/m 12,0 km/h (2 Bft)
15.08.2011 16:00 19,8 C 88 % 1013,6 hPa 0,0 l/m S-SW 0,33 h 359 W/m 10,6 km/h (2 Bft)
15.08.2011 17:00 18,5 C 93 % 1014,1 hPa 4,4 l/m S-SW 0,00 h 68 W/m 9,3 km/h (2 Bft)
15.08.2011 18:00 18,1 C 95 % 1014,3 hPa 0,0 l/m S-SW 0,33 h 134 W/m 13,3 km/h (3 Bft)
15.08.2011 19:00 17,3 C 95 % 1014,8 hPa 1,6 l/m W-SW 0,00 h 20 W/m 7,8 km/h (2 Bft)
15.08.2011 20:00 17,2 C 97 % 1015,4 hPa 1,2 l/m N 0,00 h 7 W/m 2,1 km/h (1 Bft)
15.08.2011 21:00 17,2 C 98 % 1016,3 hPa 0,0 l/m N 0,00 h 0 W/m 0,3 km/h (0 Bft)
15.08.2011 22:00 16,6 C 98 % 1016,9 hPa 0,0 l/m N 0,00 h 0 W/m 0,0 km/h (0 Bft)
15.08.2011 23:00 16,2 C 99 % 1017,1 hPa 0,0 l/m N 0,00 h 0 W/m 0,0 km/h (0 Bft)
16.08.2011 00:00 15,9 C 99 % 1017,3 hPa 0,0 l/m N 0,00 h 0 W/m 0,0 km/h (0 Bft)
16.08.2011 01:00 16,0 C 100 % 1017,2 hPa 0,0 l/m N 0,00 h 0 W/m 0,1 km/h (0 Bft)
16.08.2011 02:00 16,0 C 100 % 1017,0 hPa 0,0 l/m N 0,00 h 0 W/m 0,7 km/h (0 Bft)
16.08.2011 03:00 15,9 C 100 % 1016,9 hPa 0,2 l/m N 0,00 h 0 W/m 0,7 km/h (0 Bft)
16.08.2011 04:00 15,8 C 100 % 1016,4 hPa 0,0 l/m N 0,00 h 0 W/m 1,1 km/h (0 Bft)
16.08.2011 05:00 15,8 C 100 % 1016,1 hPa 0,0 l/m N 0,00 h 0 W/m 3,1 km/h (1 Bft)
16.08.2011 06:00 15,8 C 100 % 1016,0 hPa 0,0 l/m N 0,00 h 12 W/m 0,5 km/h (0 Bft)
16.08.2011 07:00 15,9 C 100 % 1016,1 hPa 0,0 l/m N 0,00 h 26 W/m 1,3 km/h (1 Bft)
16.08.2011 08:00 16,2 C 100 % 1016,3 hPa 0,0 l/m N 0,00 h 106 W/m 1,5 km/h (1 Bft)
16.08.2011 09:00 17,1 C 98 % 1016,4 hPa 0,0 l/m S 0,00 h 189 W/m 4,1 km/h (1 Bft)
16.08.2011 10:00 18,4 C 92 % 1016,7 hPa 0,0 l/m S-SW 0,17 h 228 W/m 4,5 km/h (1 Bft)
16.08.2011 11:00 19,5 C 86 % 1016,7 hPa 0,0 l/m S 0,25 h 390 W/m 4,1 km/h (1 Bft)
16.08.2011 12:00 20,7 C 80 % 1016,5 hPa 0,0 l/m SW 0,33 h 511 W/m 8,1 km/h (2 Bft)
16.08.2011 13:00 22,2 C 73 % 1016,2 hPa 0,0 l/m W-NW 0,83 h 757 W/m 11,4 km/h (2 Bft)
16.08.2011 14:00 22,4 C 70 % 1015,9 hPa 0,0 l/m W-NW 0,25 h 426 W/m 10,1 km/h (2 Bft)
16.08.2011 15:00 23,1 C 66 % 1015,6 hPa 0,0 l/m W 0,67 h 595 W/m 10,6 km/h (2 Bft)
16.08.2011 16:00 24,0 C 60 % 1015,2 hPa 0,0 l/m W-SW 0,92 h 627 W/m 12,1 km/h (2 Bft)
16.08.2011 17:00 23,9 C 61 % 1014,9 hPa 0,0 l/m SW 0,83 h 430 W/m 8,9 km/h (2 Bft)
16.08.2011 18:00 22,7 C 68 % 1014,8 hPa 0,0 l/m W-SW 0,25 h 124 W/m 5,3 km/h (1 Bft)
16.08.2011 19:00 22,1 C 73 % 1015,1 hPa 0,0 l/m W-SW 0,25 h 80 W/m 2,9 km/h (1 Bft)
16.08.2011 20:00 20,3 C 83 % 1015,4 hPa 0,0 l/m N-NO 0,00 h 8 W/m 2,5 km/h (1 Bft)
16.08.2011 21:00 20,1 C 78 % 1016,2 hPa 0,0 l/m N-NO 0,00 h 0 W/m 8,2 km/h (2 Bft)
16.08.2011 22:00 19,3 C 78 % 1016,5 hPa 0,0 l/m N-NO 0,00 h 0 W/m 5,9 km/h (2 Bft)
16.08.2011 23:00 17,3 C 86 % 1016,5 hPa 0,0 l/m N-NO 0,00 h 0 W/m 4,1 km/h (1 Bft)
17.08.2011 00:00 16,2 C 90 % 1016,6 hPa 0,0 l/m N 0,00 h 0 W/m 2,1 km/h (1 Bft)
17.08.2011 01:00 15,3 C 92 % 1016,4 hPa 0,0 l/m N 0,00 h 0 W/m 2,0 km/h (1 Bft)
17.08.2011 02:00 14,7 C 94 % 1016,2 hPa 0,0 l/m N-NO 0,00 h 0 W/m 3,7 km/h (1 Bft)
17.08.2011 03:00 14,4 C 95 % 1016,0 hPa 0,0 l/m N-NO 0,00 h 0 W/m 3,3 km/h (1 Bft)
17.08.2011 04:00 14,1 C 95 % 1015,7 hPa 0,0 l/m N 0,00 h 0 W/m 2,9 km/h (1 Bft)
17.08.2011 05:00 13,8 C 95 % 1015,4 hPa 0,0 l/m N-NO 0,00 h 0 W/m 3,6 km/h (1 Bft)
17.08.2011 06:00 13,6 C 96 % 1015,3 hPa 0,0 l/m N-NO 0,00 h 14 W/m 4,7 km/h (1 Bft)
17.08.2011 07:00 14,3 C 95 % 1015,2 hPa 0,0 l/m N-NO 0,50 h 104 W/m 3,6 km/h (1 Bft)
17.08.2011 08:00 16,5 C 89 % 1015,2 hPa 0,0 l/m N-NO 1,00 h 271 W/m 4,4 km/h (1 Bft)
17.08.2011 09:00 19,0 C 83 % 1015,0 hPa 0,0 l/m NO 1,00 h 443 W/m 4,9 km/h (1 Bft)
17.08.2011 10:00 21,2 C 76 % 1015,0 hPa 0,0 l/m O 1,00 h 604 W/m 6,8 km/h (2 Bft)
17.08.2011 11:00 22,6 C 70 % 1014,7 hPa 0,0 l/m N-NO 1,00 h 730 W/m 9,9 km/h (2 Bft)
17.08.2011 12:00 24,2 C 63 % 1014,3 hPa 0,0 l/m SO 1,00 h 809 W/m 7,6 km/h (2 Bft)
17.08.2011 13:00 25,5 C 59 % 1013,9 hPa 0,0 l/m SW 1,00 h 843 W/m 8,4 km/h (2 Bft)
17.08.2011 14:00 26,1 C 57 % 1013,4 hPa 0,0 l/m SW 1,00 h 835 W/m 8,6 km/h (2 Bft)
17.08.2011 15:00 26,8 C 53 % 1013,0 hPa 0,0 l/m SO 1,00 h 783 W/m 7,6 km/h (2 Bft)
17.08.2011 16:00 27,2 C 51 % 1012,5 hPa 0,0 l/m SO 0,83 h 574 W/m 7,4 km/h (2 Bft)
17.08.2011 17:00 26,7 C 50 % 1012,2 hPa 0,0 l/m SO 0,58 h 327 W/m 4,7 km/h (1 Bft)
17.08.2011 18:00 25,5 C 61 % 1012,3 hPa 0,0 l/m N 0,08 h 143 W/m 2,5 km/h (1 Bft)
17.08.2011 19:00 23,0 C 77 % 1012,2 hPa 0,0 l/m N 0,00 h 43 W/m 1,7 km/h (1 Bft)
17.08.2011 20:00 21,0 C 80 % 1012,5 hPa 0,0 l/m N 0,00 h 10 W/m 1,6 km/h (1 Bft)
17.08.2011 21:00 19,5 C 85 % 1012,8 hPa 0,0 l/m N 0,00 h 0 W/m 1,3 km/h (1 Bft)
17.08.2011 22:00 18,9 C 87 % 1012,9 hPa 0,0 l/m N 0,00 h 0 W/m 2,0 km/h (1 Bft)
17.08.2011 23:00 18,3 C 88 % 1012,9 hPa 0,0 l/m N 0,00 h 0 W/m 1,2 km/h (1 Bft)
18.08.2011 00:00 17,1 C 92 % 1012,8 hPa 0,0 l/m N 0,00 h 0 W/m 0,7 km/h (0 Bft)
18.08.2011 01:00 16,7 C 93 % 1012,9 hPa 0,0 l/m O 0,00 h 0 W/m 0,8 km/h (0 Bft)
18.08.2011 02:00 16,2 C 95 % 1012,6 hPa 0,0 l/m N 0,00 h 0 W/m 0,1 km/h (0 Bft)
18.08.2011 03:00 15,7 C 96 % 1012,5 hPa 0,0 l/m N 0,00 h 0 W/m 1,1 km/h (0 Bft)
18.08.2011 04:00 15,6 C 96 % 1012,7 hPa 0,0 l/m O 0,00 h 0 W/m 1,5 km/h (1 Bft)
18.08.2011 05:00 15,2 C 97 % 1012,9 hPa 0,0 l/m N 0,00 h 0 W/m 0,3 km/h (0 Bft)
18.08.2011 06:00 15,0 C 97 % 1013,2 hPa 0,0 l/m N 0,00 h 18 W/m 1,2 km/h (1 Bft)
18.08.2011 07:00 16,0 C 96 % 1013,4 hPa 0,0 l/m N 0,25 h 63 W/m 2,5 km/h (1 Bft)
18.08.2011 08:00 17,7 C 93 % 1013,5 hPa 0,0 l/m S 0,42 h 180 W/m 7,9 km/h (2 Bft)
18.08.2011 09:00 21,0 C 83 % 1013,6 hPa 0,0 l/m S-SO 0,83 h 398 W/m 7,6 km/h (2 Bft)
18.08.2011 10:00 22,0 C 80 % 1013,8 hPa 0,0 l/m S-SW 0,25 h 366 W/m 6,4 km/h (2 Bft)
18.08.2011 11:00 24,2 C 68 % 1014,0 hPa 0,0 l/m W 0,67 h 614 W/m 9,1 km/h (2 Bft)
18.08.2011 12:00 25,9 C 60 % 1013,7 hPa 0,0 l/m SW 0,83 h 762 W/m 12,5 km/h (3 Bft)
18.08.2011 13:00 27,5 C 50 % 1013,5 hPa 0,0 l/m W-SW 0,92 h 807 W/m 12,1 km/h (2 Bft)
18.08.2011 14:00 26,7 C 54 % 1012,8 hPa 0,0 l/m W-SW 0,25 h 356 W/m 5,6 km/h (1 Bft)
18.08.2011 15:00 28,5 C 49 % 1012,4 hPa 0,0 l/m S-SW 1,00 h 728 W/m 9,7 km/h (2 Bft)
18.08.2011 16:00 28,7 C 48 % 1012,1 hPa 0,0 l/m SW 1,00 h 610 W/m 9,5 km/h (2 Bft)
18.08.2011 17:00 28,7 C 48 % 1011,9 hPa 0,0 l/m SW 1,00 h 469 W/m 7,0 km/h (2 Bft)
18.08.2011 18:00 27,5 C 56 % 1011,4 hPa 0,0 l/m SW 0,75 h 243 W/m 3,6 km/h (1 Bft)
18.08.2011 19:00 24,9 C 73 % 1011,1 hPa 0,0 l/m N 0,42 h 79 W/m 0,8 km/h (0 Bft)
18.08.2011 20:00 21,9 C 84 % 1011,0 hPa 0,0 l/m N 0,00 h 11 W/m 0,0 km/h (0 Bft)
18.08.2011 21:00 20,3 C 85 % 1011,7 hPa 0,0 l/m N 0,00 h 0 W/m 0,5 km/h (0 Bft)
18.08.2011 22:00 20,1 C 86 % 1012,2 hPa 0,0 l/m S 0,00 h 0 W/m 2,9 km/h (1 Bft)
18.08.2011 23:00 21,1 C 82 % 1012,8 hPa 0,0 l/m SW 0,00 h 0 W/m 13,9 km/h (3 Bft)
19.08.2011 00:00 21,3 C 79 % 1012,8 hPa 0,0 l/m SW 0,00 h 0 W/m 10,2 km/h (2 Bft)
19.08.2011 01:00 20,9 C 79 % 1012,6 hPa 0,0 l/m W-SW 0,00 h 0 W/m 15,0 km/h (3 Bft)
19.08.2011 02:00 20,6 C 81 % 1012,9 hPa 0,0 l/m SW 0,00 h 0 W/m 11,6 km/h (2 Bft)
19.08.2011 03:00 20,5 C 83 % 1013,1 hPa 0,0 l/m SW 0,00 h 0 W/m 14,6 km/h (3 Bft)
19.08.2011 04:00 20,3 C 83 % 1013,1 hPa 0,0 l/m SW 0,00 h 0 W/m 13,0 km/h (3 Bft)
19.08.2011 05:00 20,8 C 80 % 1013,6 hPa 0,2 l/m SW 0,00 h 0 W/m 16,2 km/h (3 Bft)
19.08.2011 06:00 19,3 C 90 % 1014,1 hPa 0,2 l/m SW 0,00 h 6 W/m 6,4 km/h (2 Bft)
19.08.2011 07:00 18,8 C 93 % 1014,5 hPa 0,0 l/m W-SW 0,00 h 26 W/m 9,3 km/h (2 Bft)
19.08.2011 08:00 19,8 C 91 % 1014,7 hPa 0,0 l/m SW 0,75 h 230 W/m 13,0 km/h (3 Bft)
19.08.2011 09:00 21,6 C 85 % 1015,1 hPa 0,0 l/m SW 1,00 h 419 W/m 17,3 km/h (3 Bft)
19.08.2011 10:00 23,1 C 79 % 1015,2 hPa 0,0 l/m SW 1,00 h 585 W/m 22,8 km/h (4 Bft)
19.08.2011 11:00 24,6 C 70 % 1015,1 hPa 0,0 l/m W 1,00 h 728 W/m 24,5 km/h (4 Bft)
19.08.2011 12:00 25,1 C 67 % 1015,1 hPa 0,0 l/m SW 0,67 h 594 W/m 25,3 km/h (4 Bft)
19.08.2011 13:00 26,5 C 60 % 1015,1 hPa 0,0 l/m W 1,00 h 792 W/m 25,6 km/h (4 Bft)
19.08.2011 14:00 27,4 C 56 % 1014,8 hPa 0,0 l/m W 1,00 h 789 W/m 22,8 km/h (4 Bft)
19.08.2011 15:00 27,4 C 55 % 1015,0 hPa 0,0 l/m W 0,42 h 412 W/m 16,5 km/h (3 Bft)
19.08.2011 16:00 26,5 C 59 % 1015,1 hPa 0,0 l/m W 0,08 h 213 W/m 13,0 km/h (3 Bft)
19.08.2011 17:00 25,5 C 61 % 1015,4 hPa 0,0 l/m NW 0,67 h 350 W/m 16,6 km/h (3 Bft)
19.08.2011 18:00 25,7 C 61 % 1015,9 hPa 0,0 l/m W 1,00 h 274 W/m 12,6 km/h (3 Bft)
19.08.2011 19:00 24,3 C 63 % 1016,2 hPa 0,0 l/m W-NW 0,33 h 71 W/m 8,2 km/h (2 Bft)
19.08.2011 20:00 21,2 C 82 % 1016,1 hPa 0,0 l/m N 0,00 h 12 W/m 1,2 km/h (1 Bft)
19.08.2011 21:00 19,9 C 84 % 1016,7 hPa 0,0 l/m N 0,00 h 0 W/m 0,7 km/h (0 Bft)
19.08.2011 22:00 19,6 C 86 % 1017,1 hPa 0,0 l/m N 0,00 h 0 W/m 0,1 km/h (0 Bft)
19.08.2011 23:00 19,2 C 89 % 1017,5 hPa 0,0 l/m W-NW 0,00 h 0 W/m 2,1 km/h (1 Bft)
20.08.2011 00:00 19,4 C 88 % 1017,8 hPa 0,0 l/m W-NW 0,00 h 0 W/m 4,5 km/h (1 Bft)
20.08.2011 01:00 19,3 C 88 % 1018,2 hPa 0,0 l/m W-NW 0,00 h 0 W/m 5,9 km/h (2 Bft)
20.08.2011 02:00 18,7 C 88 % 1018,3 hPa 0,0 l/m NW 0,00 h 0 W/m 3,2 km/h (1 Bft)
20.08.2011 03:00 18,0 C 91 % 1018,2 hPa 0,0 l/m NW 0,00 h 0 W/m 2,7 km/h (1 Bft)
20.08.2011 04:00 17,7 C 93 % 1018,2 hPa 0,0 l/m NW 0,00 h 0 W/m 2,7 km/h (1 Bft)
20.08.2011 05:00 17,7 C 93 % 1018,1 hPa 0,0 l/m NW 0,00 h 0 W/m 3,3 km/h (1 Bft)
20.08.2011 06:00 17,2 C 95 % 1018,2 hPa 0,0 l/m NW 0,00 h 12 W/m 2,8 km/h (1 Bft)
20.08.2011 07:00 17,2 C 95 % 1018,4 hPa 0,0 l/m NW 0,00 h 74 W/m 3,7 km/h (1 Bft)
20.08.2011 08:00 18,5 C 90 % 1018,7 hPa 0,0 l/m N 0,92 h 225 W/m 5,9 km/h (2 Bft)
20.08.2011 09:00 20,4 C 85 % 1018,6 hPa 0,0 l/m N 0,67 h 339 W/m 5,3 km/h (1 Bft)
20.08.2011 10:00 22,1 C 79 % 1018,8 hPa 0,0 l/m O-NO 0,58 h 461 W/m 4,4 km/h (1 Bft)
20.08.2011 11:00 23,9 C 74 % 1018,7 hPa 0,0 l/m S-SW 0,83 h 619 W/m 4,9 km/h (1 Bft)
20.08.2011 12:00 25,8 C 67 % 1018,7 hPa 0,0 l/m O-SO 1,00 h 827 W/m 6,7 km/h (2 Bft)
20.08.2011 13:00 26,9 C 63 % 1018,4 hPa 0,0 l/m O-SO 1,00 h 791 W/m 8,2 km/h (2 Bft)
20.08.2011 14:00 27,6 C 61 % 1018,0 hPa 0,0 l/m O-NO 1,00 h 777 W/m 7,2 km/h (2 Bft)
20.08.2011 15:00 28,6 C 57 % 1017,6 hPa 0,0 l/m O-SO 1,00 h 707 W/m 7,1 km/h (2 Bft)
20.08.2011 16:00 28,8 C 56 % 1017,5 hPa 0,0 l/m O-SO 0,83 h 521 W/m 8,3 km/h (2 Bft)
20.08.2011 17:00 28,4 C 56 % 1016,9 hPa 0,0 l/m SO 0,67 h 338 W/m 7,8 km/h (2 Bft)
20.08.2011 18:00 27,8 C 59 % 1016,8 hPa 0,0 l/m SW 1,00 h 260 W/m 8,5 km/h (2 Bft)
20.08.2011 19:00 25,6 C 70 % 1016,8 hPa 0,0 l/m N 0,42 h 73 W/m 1,6 km/h (1 Bft)
20.08.2011 20:00 22,9 C 78 % 1016,9 hPa 0,0 l/m N 0,00 h 9 W/m 0,3 km/h (0 Bft)
20.08.2011 21:00 20,9 C 86 % 1017,0 hPa 0,0 l/m N 0,00 h 0 W/m 0,0 km/h (0 Bft)
20.08.2011 22:00 19,7 C 89 % 1017,1 hPa 0,0 l/m N 0,00 h 0 W/m 0,0 km/h (0 Bft)
20.08.2011 23:00 19,0 C 91 % 1017,3 hPa 0,0 l/m N 0,00 h 0 W/m 0,0 km/h (0 Bft)
21.08.2011 00:00 18,1 C 92 % 1017,1 hPa 0,0 l/m N 0,00 h 0 W/m 0,0 km/h (0 Bft)
21.08.2011 01:00 17,5 C 95 % 1016,9 hPa 0,0 l/m N 0,00 h 0 W/m 0,0 km/h (0 Bft)
21.08.2011 02:00 17,0 C 96 % 1016,9 hPa 0,0 l/m N 0,00 h 0 W/m 0,0 km/h (0 Bft)
21.08.2011 03:00 16,7 C 97 % 1017,0 hPa 0,0 l/m N 0,00 h 0 W/m 0,0 km/h (0 Bft)
21.08.2011 04:00 16,0 C 97 % 1016,8 hPa 0,0 l/m N 0,00 h 0 W/m 0,0 km/h (0 Bft)
21.08.2011 05:00 15,4 C 97 % 1016,8 hPa 0,0 l/m N 0,00 h 0 W/m 0,0 km/h (0 Bft)
21.08.2011 06:00 15,1 C 98 % 1016,9 hPa 0,0 l/m N 0,00 h 13 W/m 0,0 km/h (0 Bft)
21.08.2011 07:00 15,8 C 97 % 1017,2 hPa 0,0 l/m N 0,08 h 81 W/m 0,1 km/h (0 Bft)
21.08.2011 08:00 18,7 C 91 % 1017,1 hPa 0,0 l/m N 1,00 h 232 W/m 0,0 km/h (0 Bft)
21.08.2011 09:00 21,9 C 79 % 1016,6 hPa 0,0 l/m N 1,00 h 395 W/m 0,9 km/h (0 Bft)
21.08.2011 10:00 24,5 C 67 % 1016,7 hPa 0,0 l/m S-SW 1,00 h 549 W/m 8,6 km/h (2 Bft)
21.08.2011 11:00 26,1 C 61 % 1016,8 hPa 0,0 l/m S 0,50 h 488 W/m 8,3 km/h (2 Bft)
21.08.2011 12:00 28,2 C 58 % 1016,5 hPa 0,0 l/m SW 0,92 h 710 W/m 8,6 km/h (2 Bft)
21.08.2011 13:00 29,2 C 54 % 1016,6 hPa 0,0 l/m W-SW 0,50 h 530 W/m 12,3 km/h (3 Bft)
21.08.2011 14:00 30,4 C 45 % 1016,4 hPa 0,0 l/m W-SW 0,92 h 726 W/m 16,2 km/h (3 Bft)
21.08.2011 15:00 30,9 C 46 % 1015,9 hPa 0,0 l/m W-SW 1,00 h 650 W/m 12,6 km/h (3 Bft)
21.08.2011 16:00 30,5 C 49 % 1015,4 hPa 0,0 l/m S-SW 0,50 h 399 W/m 13,7 km/h (3 Bft)
21.08.2011 17:00 29,0 C 55 % 1014,9 hPa 0,0 l/m S-SW 0,17 h 205 W/m 11,0 km/h (2 Bft)
21.08.2011 18:00 28,6 C 56 % 1014,7 hPa 0,0 l/m SW 1,00 h 257 W/m 5,6 km/h (1 Bft)
21.08.2011 19:00 26,2 C 73 % 1014,9 hPa 0,0 l/m N 0,08 h 55 W/m 0,0 km/h (0 Bft)
21.08.2011 20:00 23,5 C 81 % 1014,9 hPa 0,0 l/m N 0,00 h 8 W/m 0,0 km/h (0 Bft)
21.08.2011 21:00 22,3 C 82 % 1015,3 hPa 0,0 l/m N 0,00 h 0 W/m 0,0 km/h (0 Bft)
21.08.2011 22:00 21,8 C 83 % 1015,1 hPa 0,0 l/m N 0,00 h 0 W/m 0,0 km/h (0 Bft)
21.08.2011 23:00 21,5 C 85 % 1015,3 hPa 0,0 l/m N 0,00 h 0 W/m 0,0 km/h (0 Bft)
Min-Datum _ 17.08.11 21.08.11 15.08.11 - - - - 15.08.11
_ Min-Zeit 05:45 14:25 04:10 - - - - 00:00
Minimum _ 13,6 C 43 % 1009,1 hPa - - - - 0,0 km/h (0 Bft)
Max-Datum _ 21.08.11 16.08.11 20.08.11 15.08.11 - 15.08.11 15.08.11 19.08.11
_ Max-Zeit 15:20 01:15 10:50 03:50 - 11:55 12:10 12:45
Maximum _ 31,3 C 100 % 1018,9 hPa 5,4 l/m - 0,08 h 1137 W/m 37,0 km/h
W (5 Bft)
Durchschnitt _ 20,8 C 81 % 1014,9 hPa #24,2 l/m SW #52:55 h 346 W/m 6,2 km/h (2 Bft)